Avoca, Illinois
Current Conditions -  °F | °C
As of 3:55 AM on Saturday 22 Nov 2014 (Local Time) from KPNT Reporting Station
Overcast Overcast  
Wind Chill: 30°   Ceiling: 2100
Heat Index: 38°   Visibility: 7mi
Dew Point: 35°   Wind: 13mph
Humidity: 92%   Direction: 190°S
Pressure: 30.11"   Gusts: NA
Location:  40.7318°N, 88.524°W
Report Text: KPNT 220955Z AUTO 19011KT 7SM SCT016 OVC021 03/02 A3011 RMK AO2 T00310019
Loading
Personal Weather Stations






























Interactive Weather Map New forecast layout! Learn more

10-Day Weather Forecast

Advertisements
Track Severe Weather on mobile